Главная страница
METAR-TAF:

METAR-TAF

Аэропорты :

Оушен округ, Нью-Джерси, США

широта: 39-55-39N, долгота: 074-17-33W, высота над уровнем моря: 25 м

Текущие метеонаблюдения

Эта сводка был подготовлена 55 минут назад, в 13:56 UTC
Ветер 4 Узел от западный-юго-западный
Температура 28°C
Влажность 70%
Давление 1021 hPa
Видимость: 16.1 км
небольшая облачность на высоте 1900 фута

METAR: KMJX 091356Z AUTO 24004KT 10SM FEW019 28/22 A3015 RMK AO2 SLP211 T02830222

Время: 10:51 (14:51 UTC)


TAF: отсутствует

Метеонаблюдения и прогнозы для более 4000 аэропортов (сводки METAR и TAF).

Имеющиеся станции представлены на карте желтыми и красными точками.

Чтобы увидеть название станции, наведите на нее мышь.

Затем щелкните, чтобы увидеть метеонаблюдения и метеопрогнозы.

Управление картой: чтобы увеличить масштаб, щелкните зеленые кнопки с черным крестиком; чтобы уменьшить масштаб, щелкните зеленую кнопку с тире; для просмотра соседних карт щелкайте зеленые стрелки.


METAR-TAF: